sensor_id;sensor_type;location;lat;lon;timestamp;P1;durP1;ratioP1;P2;durP2;ratioP2
43150;SDS011;28755;51.478;5.702;2023-06-10T00:02:00;10.40;;;6.45;;
43150;SDS011;28755;51.478;5.702;2023-06-10T00:04:26;10.73;;;6.63;;
43150;SDS011;28755;51.478;5.702;2023-06-10T00:06:52;12.55;;;6.65;;
43150;SDS011;28755;51.478;5.702;2023-06-10T00:09:18;10.15;;;6.55;;
43150;SDS011;28755;51.478;5.702;2023-06-10T00:11:46;11.70;;;7.35;;
43150;SDS011;28755;51.478;5.702;2023-06-10T00:14:12;14.93;;;6.63;;
43150;SDS011;28755;51.478;5.702;2023-06-10T00:16:38;9.75;;;6.72;;
43150;SDS011;28755;51.478;5.702;2023-06-10T00:19:04;9.27;;;6.63;;
43150;SDS011;28755;51.478;5.702;2023-06-10T00:21:31;12.15;;;6.30;;
43150;SDS011;28755;51.478;5.702;2023-06-10T00:24:05;12.25;;;6.75;;
43150;SDS011;28755;51.478;5.702;2023-06-10T00:26:32;10.90;;;6.82;;
43150;SDS011;28755;51.478;5.702;2023-06-10T00:28:58;12.52;;;6.78;;
43150;SDS011;28755;51.478;5.702;2023-06-10T00:31:24;10.38;;;6.65;;
43150;SDS011;28755;51.478;5.702;2023-06-10T00:33:51;9.43;;;6.63;;
43150;SDS011;28755;51.478;5.702;2023-06-10T00:36:17;11.15;;;6.55;;
43150;SDS011;28755;51.478;5.702;2023-06-10T00:38:42;8.63;;;6.82;;
43150;SDS011;28755;51.478;5.702;2023-06-10T00:41:08;7.72;;;6.68;;
43150;SDS011;28755;51.478;5.702;2023-06-10T00:43:34;13.52;;;7.32;;
43150;SDS011;28755;51.478;5.702;2023-06-10T00:45:59;11.23;;;7.60;;
43150;SDS011;28755;51.478;5.702;2023-06-10T00:48:25;8.98;;;7.70;;
43150;SDS011;28755;51.478;5.702;2023-06-10T00:50:52;12.40;;;7.15;;
43150;SDS011;28755;51.478;5.702;2023-06-10T00:53:18;10.80;;;6.60;;
43150;SDS011;28755;51.478;5.702;2023-06-10T00:55:44;11.45;;;7.00;;
43150;SDS011;28755;51.478;5.702;2023-06-10T00:58:10;10.45;;;7.10;;
43150;SDS011;28755;51.478;5.702;2023-06-10T01:00:36;12.02;;;7.55;;
43150;SDS011;28755;51.478;5.702;2023-06-10T01:03:02;10.10;;;7.10;;
43150;SDS011;28755;51.478;5.702;2023-06-10T01:05:32;11.32;;;7.15;;
43150;SDS011;28755;51.478;5.702;2023-06-10T01:08:17;9.88;;;7.57;;
43150;SDS011;28755;51.478;5.702;2023-06-10T01:10:55;14.85;;;8.02;;
43150;SDS011;28755;51.478;5.702;2023-06-10T01:13:24;11.63;;;7.60;;
43150;SDS011;28755;51.478;5.702;2023-06-10T01:15:53;12.27;;;7.13;;
43150;SDS011;28755;51.478;5.702;2023-06-10T01:18:22;11.98;;;7.65;;
43150;SDS011;28755;51.478;5.702;2023-06-10T01:20:48;9.73;;;7.72;;
43150;SDS011;28755;51.478;5.702;2023-06-10T01:23:14;9.38;;;7.70;;
43150;SDS011;28755;51.478;5.702;2023-06-10T01:25:41;10.45;;;8.13;;
43150;SDS011;28755;51.478;5.702;2023-06-10T01:28:30;9.83;;;7.90;;
43150;SDS011;28755;51.478;5.702;2023-06-10T01:33:43;11.48;;;8.25;;
43150;SDS011;28755;51.478;5.702;2023-06-10T01:36:12;12.32;;;7.63;;
43150;SDS011;28755;51.478;5.702;2023-06-10T01:38:44;13.32;;;7.72;;
43150;SDS011;28755;51.478;5.702;2023-06-10T01:41:11;11.98;;;7.93;;
43150;SDS011;28755;51.478;5.702;2023-06-10T01:43:39;9.48;;;7.07;;
43150;SDS011;28755;51.478;5.702;2023-06-10T01:46:05;14.43;;;8.10;;
43150;SDS011;28755;51.478;5.702;2023-06-10T01:48:31;10.00;;;7.53;;
43150;SDS011;28755;51.478;5.702;2023-06-10T01:50:57;13.00;;;7.60;;
43150;SDS011;28755;51.478;5.702;2023-06-10T01:53:23;8.98;;;7.28;;
43150;SDS011;28755;51.478;5.702;2023-06-10T01:55:48;13.27;;;7.70;;
43150;SDS011;28755;51.478;5.702;2023-06-10T01:58:14;9.02;;;7.90;;
43150;SDS011;28755;51.478;5.702;2023-06-10T02:00:40;13.30;;;7.88;;
43150;SDS011;28755;51.478;5.702;2023-06-10T02:03:05;10.23;;;8.00;;
43150;SDS011;28755;51.478;5.702;2023-06-10T02:05:31;12.27;;;8.20;;
43150;SDS011;28755;51.478;5.702;2023-06-10T02:07:57;14.18;;;7.93;;
43150;SDS011;28755;51.478;5.702;2023-06-10T02:10:22;12.55;;;8.35;;
43150;SDS011;28755;51.478;5.702;2023-06-10T02:12:48;12.02;;;8.25;;
43150;SDS011;28755;51.478;5.702;2023-06-10T02:15:14;13.65;;;8.63;;
43150;SDS011;28755;51.478;5.702;2023-06-10T02:17:39;9.45;;;7.97;;
43150;SDS011;28755;51.478;5.702;2023-06-10T02:20:05;13.27;;;8.77;;
43150;SDS011;28755;51.478;5.702;2023-06-10T02:22:32;9.30;;;7.75;;
43150;SDS011;28755;51.478;5.702;2023-06-10T02:24:57;12.23;;;8.32;;
43150;SDS011;28755;51.478;5.702;2023-06-10T02:27:23;11.77;;;8.35;;
43150;SDS011;28755;51.478;5.702;2023-06-10T02:29:49;11.95;;;8.05;;
43150;SDS011;28755;51.478;5.702;2023-06-10T02:32:15;11.02;;;8.80;;
43150;SDS011;28755;51.478;5.702;2023-06-10T02:34:40;12.43;;;9.10;;
43150;SDS011;28755;51.478;5.702;2023-06-10T02:37:07;12.85;;;8.27;;
43150;SDS011;28755;51.478;5.702;2023-06-10T02:39:33;11.00;;;8.30;;
43150;SDS011;28755;51.478;5.702;2023-06-10T02:41:59;13.85;;;8.77;;
43150;SDS011;28755;51.478;5.702;2023-06-10T02:44:24;11.05;;;8.85;;
43150;SDS011;28755;51.478;5.702;2023-06-10T02:46:50;13.38;;;9.18;;
43150;SDS011;28755;51.478;5.702;2023-06-10T02:49:16;13.65;;;9.90;;
43150;SDS011;28755;51.478;5.702;2023-06-10T02:51:41;14.32;;;8.82;;
43150;SDS011;28755;51.478;5.702;2023-06-10T02:54:07;13.95;;;10.25;;
43150;SDS011;28755;51.478;5.702;2023-06-10T02:56:32;11.55;;;9.35;;
43150;SDS011;28755;51.478;5.702;2023-06-10T02:58:58;13.93;;;9.43;;
43150;SDS011;28755;51.478;5.702;2023-06-10T03:01:24;11.95;;;9.40;;
43150;SDS011;28755;51.478;5.702;2023-06-10T03:03:49;14.48;;;10.38;;
43150;SDS011;28755;51.478;5.702;2023-06-10T03:06:15;11.88;;;9.52;;
43150;SDS011;28755;51.478;5.702;2023-06-10T03:08:41;15.20;;;9.85;;
43150;SDS011;28755;51.478;5.702;2023-06-10T03:11:06;11.82;;;10.15;;
43150;SDS011;28755;51.478;5.702;2023-06-10T03:13:32;13.10;;;11.02;;
43150;SDS011;28755;51.478;5.702;2023-06-10T03:15:58;12.98;;;10.15;;
43150;SDS011;28755;51.478;5.702;2023-06-10T03:18:27;12.93;;;10.25;;
43150;SDS011;28755;51.478;5.702;2023-06-10T03:20:53;14.77;;;10.30;;
43150;SDS011;28755;51.478;5.702;2023-06-10T03:23:20;12.07;;;10.27;;
43150;SDS011;28755;51.478;5.702;2023-06-10T03:25:45;13.57;;;10.32;;
43150;SDS011;28755;51.478;5.702;2023-06-10T03:28:11;15.18;;;10.70;;
43150;SDS011;28755;51.478;5.702;2023-06-10T03:30:37;11.80;;;10.55;;
43150;SDS011;28755;51.478;5.702;2023-06-10T03:33:02;19.42;;;11.10;;
43150;SDS011;28755;51.478;5.702;2023-06-10T03:35:28;14.07;;;10.82;;
43150;SDS011;28755;51.478;5.702;2023-06-10T03:37:54;14.73;;;10.40;;
43150;SDS011;28755;51.478;5.702;2023-06-10T03:40:20;15.32;;;10.30;;
43150;SDS011;28755;51.478;5.702;2023-06-10T03:42:45;11.77;;;10.38;;
43150;SDS011;28755;51.478;5.702;2023-06-10T03:45:11;12.73;;;10.30;;
43150;SDS011;28755;51.478;5.702;2023-06-10T03:47:37;14.43;;;10.43;;
43150;SDS011;28755;51.478;5.702;2023-06-10T03:50:05;14.15;;;10.20;;
43150;SDS011;28755;51.478;5.702;2023-06-10T03:52:33;14.82;;;10.50;;
43150;SDS011;28755;51.478;5.702;2023-06-10T03:54:59;14.55;;;11.30;;
43150;SDS011;28755;51.478;5.702;2023-06-10T03:57:24;14.07;;;10.57;;
43150;SDS011;28755;51.478;5.702;2023-06-10T03:59:50;15.00;;;11.77;;
43150;SDS011;28755;51.478;5.702;2023-06-10T04:02:16;13.80;;;10.80;;
43150;SDS011;28755;51.478;5.702;2023-06-10T04:04:41;13.45;;;11.20;;
43150;SDS011;28755;51.478;5.702;2023-06-10T04:07:07;17.85;;;11.70;;
43150;SDS011;28755;51.478;5.702;2023-06-10T04:09:34;18.08;;;12.23;;
43150;SDS011;28755;51.478;5.702;2023-06-10T04:12:00;14.20;;;12.05;;
43150;SDS011;28755;51.478;5.702;2023-06-10T04:14:26;15.85;;;12.02;;
43150;SDS011;28755;51.478;5.702;2023-06-10T04:16:52;15.55;;;12.35;;
43150;SDS011;28755;51.478;5.702;2023-06-10T04:19:18;16.83;;;12.65;;
43150;SDS011;28755;51.478;5.702;2023-06-10T04:21:43;17.92;;;12.80;;
43150;SDS011;28755;51.478;5.702;2023-06-10T04:24:09;14.60;;;12.75;;
43150;SDS011;28755;51.478;5.702;2023-06-10T04:26:35;15.65;;;12.95;;
43150;SDS011;28755;51.478;5.702;2023-06-10T04:29:01;18.35;;;12.70;;
43150;SDS011;28755;51.478;5.702;2023-06-10T04:31:26;16.33;;;12.55;;
43150;SDS011;28755;51.478;5.702;2023-06-10T04:33:52;17.20;;;12.05;;
43150;SDS011;28755;51.478;5.702;2023-06-10T04:36:18;16.15;;;11.80;;
43150;SDS011;28755;51.478;5.702;2023-06-10T04:38:44;19.42;;;13.00;;
43150;SDS011;28755;51.478;5.702;2023-06-10T04:41:09;16.70;;;12.82;;
43150;SDS011;28755;51.478;5.702;2023-06-10T04:43:35;17.80;;;13.57;;
43150;SDS011;28755;51.478;5.702;2023-06-10T04:46:01;15.98;;;12.85;;
43150;SDS011;28755;51.478;5.702;2023-06-10T04:48:27;16.67;;;12.57;;
43150;SDS011;28755;51.478;5.702;2023-06-10T04:50:52;15.88;;;12.15;;
43150;SDS011;28755;51.478;5.702;2023-06-10T04:53:18;15.10;;;12.27;;
43150;SDS011;28755;51.478;5.702;2023-06-10T04:55:44;18.67;;;12.07;;
43150;SDS011;28755;51.478;5.702;2023-06-10T04:58:09;15.55;;;11.68;;
43150;SDS011;28755;51.478;5.702;2023-06-10T05:00:35;14.57;;;11.63;;
43150;SDS011;28755;51.478;5.702;2023-06-10T05:03:00;16.73;;;11.32;;
43150;SDS011;28755;51.478;5.702;2023-06-10T05:05:26;19.33;;;11.40;;
43150;SDS011;28755;51.478;5.702;2023-06-10T05:07:51;13.95;;;11.13;;
43150;SDS011;28755;51.478;5.702;2023-06-10T05:10:17;14.20;;;10.77;;
43150;SDS011;28755;51.478;5.702;2023-06-10T05:12:43;13.98;;;10.38;;
43150;SDS011;28755;51.478;5.702;2023-06-10T05:15:08;16.23;;;11.50;;
43150;SDS011;28755;51.478;5.702;2023-06-10T05:17:34;15.90;;;10.90;;
43150;SDS011;28755;51.478;5.702;2023-06-10T05:20:00;14.75;;;11.02;;
43150;SDS011;28755;51.478;5.702;2023-06-10T05:22:27;16.48;;;11.20;;
43150;SDS011;28755;51.478;5.702;2023-06-10T05:24:52;16.17;;;10.55;;
43150;SDS011;28755;51.478;5.702;2023-06-10T05:27:18;13.55;;;10.85;;
43150;SDS011;28755;51.478;5.702;2023-06-10T05:29:44;15.15;;;10.95;;
43150;SDS011;28755;51.478;5.702;2023-06-10T05:32:10;13.68;;;11.45;;
43150;SDS011;28755;51.478;5.702;2023-06-10T05:34:36;15.82;;;11.70;;
43150;SDS011;28755;51.478;5.702;2023-06-10T05:37:02;16.40;;;10.88;;
43150;SDS011;28755;51.478;5.702;2023-06-10T05:39:29;14.00;;;11.55;;
43150;SDS011;28755;51.478;5.702;2023-06-10T05:41:55;15.18;;;11.48;;
43150;SDS011;28755;51.478;5.702;2023-06-10T05:44:23;16.40;;;10.52;;
43150;SDS011;28755;51.478;5.702;2023-06-10T05:46:49;19.77;;;10.55;;
43150;SDS011;28755;51.478;5.702;2023-06-10T05:49:15;15.55;;;11.07;;
43150;SDS011;28755;51.478;5.702;2023-06-10T05:51:40;14.50;;;10.95;;
43150;SDS011;28755;51.478;5.702;2023-06-10T05:54:06;18.73;;;10.93;;
43150;SDS011;28755;51.478;5.702;2023-06-10T05:56:31;14.40;;;10.77;;
43150;SDS011;28755;51.478;5.702;2023-06-10T05:58:57;14.25;;;10.57;;
43150;SDS011;28755;51.478;5.702;2023-06-10T06:01:23;19.50;;;10.48;;
43150;SDS011;28755;51.478;5.702;2023-06-10T06:03:48;17.50;;;9.93;;
43150;SDS011;28755;51.478;5.702;2023-06-10T06:06:14;15.90;;;10.50;;
43150;SDS011;28755;51.478;5.702;2023-06-10T06:08:39;15.38;;;10.68;;
43150;SDS011;28755;51.478;5.702;2023-06-10T06:11:05;17.08;;;11.48;;
43150;SDS011;28755;51.478;5.702;2023-06-10T06:13:30;19.08;;;9.73;;
43150;SDS011;28755;51.478;5.702;2023-06-10T06:15:56;14.27;;;10.23;;
43150;SDS011;28755;51.478;5.702;2023-06-10T06:18:21;14.50;;;9.50;;
43150;SDS011;28755;51.478;5.702;2023-06-10T06:20:47;18.10;;;10.05;;
43150;SDS011;28755;51.478;5.702;2023-06-10T06:23:12;12.43;;;9.70;;
43150;SDS011;28755;51.478;5.702;2023-06-10T06:25:39;15.77;;;9.32;;
43150;SDS011;28755;51.478;5.702;2023-06-10T06:28:07;14.88;;;9.90;;
43150;SDS011;28755;51.478;5.702;2023-06-10T06:30:34;16.27;;;9.50;;
43150;SDS011;28755;51.478;5.702;2023-06-10T06:33:00;12.13;;;9.15;;
43150;SDS011;28755;51.478;5.702;2023-06-10T06:35:26;17.75;;;9.80;;
43150;SDS011;28755;51.478;5.702;2023-06-10T06:37:52;17.30;;;9.82;;
43150;SDS011;28755;51.478;5.702;2023-06-10T06:40:18;14.88;;;9.80;;
43150;SDS011;28755;51.478;5.702;2023-06-10T06:42:44;15.93;;;10.32;;
43150;SDS011;28755;51.478;5.702;2023-06-10T06:45:09;15.95;;;10.23;;
43150;SDS011;28755;51.478;5.702;2023-06-10T06:47:35;14.65;;;8.48;;
43150;SDS011;28755;51.478;5.702;2023-06-10T06:50:00;21.13;;;9.85;;
43150;SDS011;28755;51.478;5.702;2023-06-10T06:52:27;14.73;;;9.27;;
43150;SDS011;28755;51.478;5.702;2023-06-10T06:54:53;12.95;;;9.13;;
43150;SDS011;28755;51.478;5.702;2023-06-10T06:57:19;17.95;;;9.23;;
43150;SDS011;28755;51.478;5.702;2023-06-10T06:59:44;13.52;;;8.77;;
43150;SDS011;28755;51.478;5.702;2023-06-10T07:02:10;22.85;;;8.38;;
43150;SDS011;28755;51.478;5.702;2023-06-10T07:04:36;15.30;;;8.35;;
43150;SDS011;28755;51.478;5.702;2023-06-10T07:07:01;16.52;;;9.02;;
43150;SDS011;28755;51.478;5.702;2023-06-10T07:09:27;19.10;;;8.13;;
43150;SDS011;28755;51.478;5.702;2023-06-10T07:11:53;12.63;;;9.07;;
43150;SDS011;28755;51.478;5.702;2023-06-10T07:14:18;13.38;;;8.25;;
43150;SDS011;28755;51.478;5.702;2023-06-10T07:16:44;17.73;;;8.43;;
43150;SDS011;28755;51.478;5.702;2023-06-10T07:19:11;17.20;;;8.35;;
43150;SDS011;28755;51.478;5.702;2023-06-10T07:21:36;13.73;;;8.52;;
43150;SDS011;28755;51.478;5.702;2023-06-10T07:24:02;11.73;;;7.07;;
43150;SDS011;28755;51.478;5.702;2023-06-10T07:26:28;12.57;;;7.55;;
43150;SDS011;28755;51.478;5.702;2023-06-10T07:28:54;12.30;;;7.30;;
43150;SDS011;28755;51.478;5.702;2023-06-10T07:31:20;12.20;;;6.70;;
43150;SDS011;28755;51.478;5.702;2023-06-10T07:33:46;15.23;;;7.60;;
43150;SDS011;28755;51.478;5.702;2023-06-10T07:36:12;14.20;;;7.22;;
43150;SDS011;28755;51.478;5.702;2023-06-10T07:38:37;11.00;;;6.63;;
43150;SDS011;28755;51.478;5.702;2023-06-10T07:41:03;15.70;;;6.53;;
43150;SDS011;28755;51.478;5.702;2023-06-10T07:43:28;12.25;;;7.20;;
43150;SDS011;28755;51.478;5.702;2023-06-10T07:45:54;15.73;;;7.70;;
43150;SDS011;28755;51.478;5.702;2023-06-10T07:48:20;10.10;;;5.95;;
43150;SDS011;28755;51.478;5.702;2023-06-10T07:50:45;13.40;;;6.38;;
43150;SDS011;28755;51.478;5.702;2023-06-10T07:53:11;10.90;;;6.82;;
43150;SDS011;28755;51.478;5.702;2023-06-10T07:55:36;13.75;;;7.05;;
43150;SDS011;28755;51.478;5.702;2023-06-10T07:58:02;16.58;;;6.53;;
43150;SDS011;28755;51.478;5.702;2023-06-10T08:00:27;8.57;;;6.05;;
43150;SDS011;28755;51.478;5.702;2023-06-10T08:02:53;8.85;;;6.00;;
43150;SDS011;28755;51.478;5.702;2023-06-10T08:05:19;12.60;;;6.63;;
43150;SDS011;28755;51.478;5.702;2023-06-10T08:07:45;14.77;;;6.30;;
43150;SDS011;28755;51.478;5.702;2023-06-10T08:10:10;12.45;;;6.20;;
43150;SDS011;28755;51.478;5.702;2023-06-10T08:12:36;11.50;;;6.90;;
43150;SDS011;28755;51.478;5.702;2023-06-10T08:15:02;7.38;;;5.70;;
43150;SDS011;28755;51.478;5.702;2023-06-10T08:17:28;12.60;;;6.03;;
43150;SDS011;28755;51.478;5.702;2023-06-10T08:19:55;13.65;;;6.47;;
43150;SDS011;28755;51.478;5.702;2023-06-10T08:22:20;14.52;;;5.90;;
43150;SDS011;28755;51.478;5.702;2023-06-10T08:24:46;12.18;;;6.18;;
43150;SDS011;28755;51.478;5.702;2023-06-10T08:27:11;9.90;;;5.57;;
43150;SDS011;28755;51.478;5.702;2023-06-10T08:29:37;9.68;;;6.13;;
43150;SDS011;28755;51.478;5.702;2023-06-10T08:32:03;11.00;;;5.50;;
43150;SDS011;28755;51.478;5.702;2023-06-10T08:34:29;12.70;;;6.45;;
43150;SDS011;28755;51.478;5.702;2023-06-10T08:36:55;9.10;;;5.20;;
43150;SDS011;28755;51.478;5.702;2023-06-10T08:39:21;9.48;;;5.65;;
43150;SDS011;28755;51.478;5.702;2023-06-10T08:42:00;13.10;;;5.57;;
43150;SDS011;28755;51.478;5.702;2023-06-10T08:44:32;9.40;;;5.30;;
43150;SDS011;28755;51.478;5.702;2023-06-10T08:47:02;15.40;;;5.38;;
43150;SDS011;28755;51.478;5.702;2023-06-10T08:49:38;12.07;;;5.10;;
43150;SDS011;28755;51.478;5.702;2023-06-10T08:52:08;10.05;;;5.55;;
43150;SDS011;28755;51.478;5.702;2023-06-10T08:54:38;7.25;;;5.28;;
43150;SDS011;28755;51.478;5.702;2023-06-10T08:57:07;12.02;;;5.15;;
43150;SDS011;28755;51.478;5.702;2023-06-10T08:59:33;12.00;;;5.38;;
43150;SDS011;28755;51.478;5.702;2023-06-10T09:01:58;15.98;;;5.65;;
43150;SDS011;28755;51.478;5.702;2023-06-10T09:04:26;6.85;;;5.00;;
43150;SDS011;28755;51.478;5.702;2023-06-10T09:06:52;8.82;;;5.00;;
43150;SDS011;28755;51.478;5.702;2023-06-10T09:09:18;12.68;;;5.10;;
43150;SDS011;28755;51.478;5.702;2023-06-10T09:11:45;7.63;;;5.13;;
43150;SDS011;28755;51.478;5.702;2023-06-10T09:14:11;9.55;;;5.30;;
43150;SDS011;28755;51.478;5.702;2023-06-10T09:16:41;10.23;;;5.13;;
43150;SDS011;28755;51.478;5.702;2023-06-10T09:19:07;9.68;;;5.30;;
43150;SDS011;28755;51.478;5.702;2023-06-10T09:21:33;8.57;;;5.38;;
43150;SDS011;28755;51.478;5.702;2023-06-10T09:24:00;10.30;;;5.32;;
43150;SDS011;28755;51.478;5.702;2023-06-10T09:26:29;15.35;;;4.88;;
43150;SDS011;28755;51.478;5.702;2023-06-10T09:29:05;8.18;;;5.32;;
43150;SDS011;28755;51.478;5.702;2023-06-10T09:31:34;8.60;;;5.40;;
43150;SDS011;28755;51.478;5.702;2023-06-10T09:34:10;13.63;;;5.75;;
43150;SDS011;28755;51.478;5.702;2023-06-10T09:36:37;9.30;;;4.85;;
43150;SDS011;28755;51.478;5.702;2023-06-10T09:39:04;10.77;;;5.25;;
43150;SDS011;28755;51.478;5.702;2023-06-10T09:41:34;8.75;;;4.70;;
43150;SDS011;28755;51.478;5.702;2023-06-10T09:44:00;12.18;;;5.25;;
43150;SDS011;28755;51.478;5.702;2023-06-10T09:46:30;9.05;;;5.10;;
43150;SDS011;28755;51.478;5.702;2023-06-10T09:48:57;8.07;;;5.00;;
43150;SDS011;28755;51.478;5.702;2023-06-10T09:51:23;6.80;;;4.63;;
43150;SDS011;28755;51.478;5.702;2023-06-10T09:53:52;6.97;;;5.28;;
43150;SDS011;28755;51.478;5.702;2023-06-10T09:58:45;10.25;;;5.20;;
43150;SDS011;28755;51.478;5.702;2023-06-10T10:01:12;9.55;;;5.35;;
43150;SDS011;28755;51.478;5.702;2023-06-10T10:03:43;10.93;;;5.28;;
43150;SDS011;28755;51.478;5.702;2023-06-10T10:06:10;9.95;;;5.05;;
43150;SDS011;28755;51.478;5.702;2023-06-10T10:08:36;13.25;;;5.10;;
43150;SDS011;28755;51.478;5.702;2023-06-10T10:11:01;10.77;;;4.65;;
43150;SDS011;28755;51.478;5.702;2023-06-10T10:13:28;9.52;;;4.80;;
43150;SDS011;28755;51.478;5.702;2023-06-10T10:15:59;16.17;;;5.03;;
43150;SDS011;28755;51.478;5.702;2023-06-10T10:18:29;7.85;;;5.07;;
43150;SDS011;28755;51.478;5.702;2023-06-10T10:20:56;9.90;;;4.85;;
43150;SDS011;28755;51.478;5.702;2023-06-10T10:23:26;7.43;;;4.93;;
43150;SDS011;28755;51.478;5.702;2023-06-10T10:25:57;14.27;;;5.43;;
43150;SDS011;28755;51.478;5.702;2023-06-10T10:28:25;10.77;;;4.95;;
43150;SDS011;28755;51.478;5.702;2023-06-10T10:31:02;6.90;;;5.00;;
43150;SDS011;28755;51.478;5.702;2023-06-10T10:36:21;9.25;;;5.22;;
43150;SDS011;28755;51.478;5.702;2023-06-10T10:38:47;7.38;;;5.15;;
43150;SDS011;28755;51.478;5.702;2023-06-10T10:41:14;8.90;;;5.00;;
43150;SDS011;28755;51.478;5.702;2023-06-10T10:43:41;9.90;;;5.03;;
43150;SDS011;28755;51.478;5.702;2023-06-10T10:46:11;9.02;;;4.80;;
43150;SDS011;28755;51.478;5.702;2023-06-10T10:48:38;10.65;;;3.95;;
43150;SDS011;28755;51.478;5.702;2023-06-10T10:51:06;6.22;;;4.57;;
43150;SDS011;28755;51.478;5.702;2023-06-10T10:53:32;8.93;;;5.10;;
43150;SDS011;28755;51.478;5.702;2023-06-10T10:56:09;9.48;;;4.88;;
43150;SDS011;28755;51.478;5.702;2023-06-10T10:58:39;11.60;;;4.50;;
43150;SDS011;28755;51.478;5.702;2023-06-10T11:01:11;10.60;;;5.20;;
43150;SDS011;28755;51.478;5.702;2023-06-10T11:03:44;6.93;;;4.85;;
43150;SDS011;28755;51.478;5.702;2023-06-10T11:06:15;9.85;;;5.03;;
43150;SDS011;28755;51.478;5.702;2023-06-10T11:11:20;10.40;;;4.90;;
43150;SDS011;28755;51.478;5.702;2023-06-10T11:14:05;9.15;;;4.65;;
43150;SDS011;28755;51.478;5.702;2023-06-10T11:16:42;11.82;;;4.70;;
43150;SDS011;28755;51.478;5.702;2023-06-10T11:19:08;8.75;;;4.90;;
43150;SDS011;28755;51.478;5.702;2023-06-10T11:21:45;7.05;;;4.70;;
43150;SDS011;28755;51.478;5.702;2023-06-10T11:24:26;8.23;;;4.72;;
43150;SDS011;28755;51.478;5.702;2023-06-10T11:26:53;12.30;;;5.05;;
43150;SDS011;28755;51.478;5.702;2023-06-10T11:29:18;9.15;;;4.90;;
43150;SDS011;28755;51.478;5.702;2023-06-10T11:31:46;8.80;;;4.40;;
43150;SDS011;28755;51.478;5.702;2023-06-10T11:34:15;5.28;;;4.60;;
43150;SDS011;28755;51.478;5.702;2023-06-10T11:36:48;8.38;;;4.47;;
43150;SDS011;28755;51.478;5.702;2023-06-10T11:39:14;7.03;;;4.63;;
43150;SDS011;28755;51.478;5.702;2023-06-10T11:41:40;6.88;;;4.75;;
43150;SDS011;28755;51.478;5.702;2023-06-10T11:44:09;9.45;;;4.40;;
43150;SDS011;28755;51.478;5.702;2023-06-10T11:46:36;7.70;;;4.70;;
43150;SDS011;28755;51.478;5.702;2023-06-10T11:49:02;10.75;;;4.60;;
43150;SDS011;28755;51.478;5.702;2023-06-10T11:54:34;10.93;;;4.57;;
43150;SDS011;28755;51.478;5.702;2023-06-10T11:59:29;7.93;;;4.60;;
43150;SDS011;28755;51.478;5.702;2023-06-10T12:01:55;8.20;;;4.85;;
43150;SDS011;28755;51.478;5.702;2023-06-10T12:04:21;9.25;;;4.93;;
43150;SDS011;28755;51.478;5.702;2023-06-10T12:06:48;9.77;;;4.85;;
43150;SDS011;28755;51.478;5.702;2023-06-10T12:11:40;8.50;;;4.65;;
43150;SDS011;28755;51.478;5.702;2023-06-10T12:14:08;7.03;;;5.00;;
43150;SDS011;28755;51.478;5.702;2023-06-10T12:16:34;7.40;;;4.60;;
43150;SDS011;28755;51.478;5.702;2023-06-10T12:19:03;11.25;;;5.13;;
43150;SDS011;28755;51.478;5.702;2023-06-10T12:21:31;8.02;;;4.97;;
43150;SDS011;28755;51.478;5.702;2023-06-10T12:24:10;7.40;;;4.93;;
43150;SDS011;28755;51.478;5.702;2023-06-10T12:26:40;9.93;;;5.18;;
43150;SDS011;28755;51.478;5.702;2023-06-10T12:29:23;8.93;;;4.90;;
43150;SDS011;28755;51.478;5.702;2023-06-10T12:34:32;9.18;;;4.68;;
43150;SDS011;28755;51.478;5.702;2023-06-10T12:36:58;7.15;;;4.78;;
43150;SDS011;28755;51.478;5.702;2023-06-10T12:39:25;9.82;;;5.18;;
43150;SDS011;28755;51.478;5.702;2023-06-10T12:41:51;7.82;;;5.05;;
43150;SDS011;28755;51.478;5.702;2023-06-10T12:44:17;8.02;;;4.80;;
43150;SDS011;28755;51.478;5.702;2023-06-10T12:46:43;8.90;;;4.90;;
43150;SDS011;28755;51.478;5.702;2023-06-10T12:49:18;6.82;;;4.90;;
43150;SDS011;28755;51.478;5.702;2023-06-10T12:51:45;9.45;;;4.82;;
43150;SDS011;28755;51.478;5.702;2023-06-10T12:54:11;6.00;;;4.70;;
43150;SDS011;28755;51.478;5.702;2023-06-10T12:56:37;14.25;;;5.13;;
43150;SDS011;28755;51.478;5.702;2023-06-10T12:59:03;17.65;;;4.75;;
43150;SDS011;28755;51.478;5.702;2023-06-10T13:01:28;13.10;;;4.85;;
43150;SDS011;28755;51.478;5.702;2023-06-10T13:03:56;8.13;;;4.50;;
43150;SDS011;28755;51.478;5.702;2023-06-10T13:06:22;9.55;;;4.90;;
43150;SDS011;28755;51.478;5.702;2023-06-10T13:08:48;5.90;;;4.57;;
43150;SDS011;28755;51.478;5.702;2023-06-10T13:11:13;10.60;;;4.45;;
43150;SDS011;28755;51.478;5.702;2023-06-10T13:13:39;9.73;;;4.90;;
43150;SDS011;28755;51.478;5.702;2023-06-10T13:16:05;10.50;;;4.88;;
43150;SDS011;28755;51.478;5.702;2023-06-10T13:18:32;9.32;;;5.95;;
43150;SDS011;28755;51.478;5.702;2023-06-10T13:21:02;8.65;;;5.20;;
43150;SDS011;28755;51.478;5.702;2023-06-10T13:23:28;9.52;;;4.85;;
43150;SDS011;28755;51.478;5.702;2023-06-10T13:25:54;16.10;;;5.00;;
43150;SDS011;28755;51.478;5.702;2023-06-10T13:28:20;9.07;;;4.93;;
43150;SDS011;28755;51.478;5.702;2023-06-10T13:30:46;16.23;;;4.85;;
43150;SDS011;28755;51.478;5.702;2023-06-10T13:33:11;6.38;;;4.53;;
43150;SDS011;28755;51.478;5.702;2023-06-10T13:35:37;7.10;;;4.53;;
43150;SDS011;28755;51.478;5.702;2023-06-10T13:38:03;7.10;;;4.70;;
43150;SDS011;28755;51.478;5.702;2023-06-10T13:40:28;11.10;;;5.00;;
43150;SDS011;28755;51.478;5.702;2023-06-10T13:42:54;8.82;;;5.03;;
43150;SDS011;28755;51.478;5.702;2023-06-10T13:45:20;8.57;;;4.50;;
43150;SDS011;28755;51.478;5.702;2023-06-10T13:47:45;6.72;;;4.32;;
43150;SDS011;28755;51.478;5.702;2023-06-10T13:50:11;6.22;;;4.50;;
43150;SDS011;28755;51.478;5.702;2023-06-10T13:52:38;8.10;;;5.15;;
43150;SDS011;28755;51.478;5.702;2023-06-10T13:55:03;8.30;;;4.40;;
43150;SDS011;28755;51.478;5.702;2023-06-10T13:57:29;10.75;;;5.35;;
43150;SDS011;28755;51.478;5.702;2023-06-10T13:59:55;9.50;;;4.60;;
43150;SDS011;28755;51.478;5.702;2023-06-10T14:02:21;8.60;;;4.25;;
43150;SDS011;28755;51.478;5.702;2023-06-10T14:04:50;8.37;;;4.50;;
43150;SDS011;28755;51.478;5.702;2023-06-10T14:07:15;8.02;;;4.95;;
43150;SDS011;28755;51.478;5.702;2023-06-10T14:09:41;11.10;;;5.28;;
43150;SDS011;28755;51.478;5.702;2023-06-10T14:12:07;8.35;;;5.15;;
43150;SDS011;28755;51.478;5.702;2023-06-10T14:14:34;8.27;;;4.88;;
43150;SDS011;28755;51.478;5.702;2023-06-10T14:16:59;7.47;;;5.07;;
43150;SDS011;28755;51.478;5.702;2023-06-10T14:19:25;7.47;;;5.00;;
43150;SDS011;28755;51.478;5.702;2023-06-10T14:21:50;8.80;;;5.03;;
43150;SDS011;28755;51.478;5.702;2023-06-10T14:24:18;8.73;;;5.90;;
43150;SDS011;28755;51.478;5.702;2023-06-10T14:26:43;11.90;;;4.75;;
43150;SDS011;28755;51.478;5.702;2023-06-10T14:29:09;8.73;;;5.15;;
43150;SDS011;28755;51.478;5.702;2023-06-10T14:31:35;9.13;;;5.07;;
43150;SDS011;28755;51.478;5.702;2023-06-10T14:34:00;12.45;;;4.68;;
43150;SDS011;28755;51.478;5.702;2023-06-10T14:36:26;6.50;;;5.20;;
43150;SDS011;28755;51.478;5.702;2023-06-10T14:38:51;8.05;;;4.85;;
43150;SDS011;28755;51.478;5.702;2023-06-10T14:41:17;9.50;;;5.90;;
43150;SDS011;28755;51.478;5.702;2023-06-10T14:43:42;7.55;;;5.07;;
43150;SDS011;28755;51.478;5.702;2023-06-10T14:46:08;9.48;;;5.38;;
43150;SDS011;28755;51.478;5.702;2023-06-10T14:48:33;12.77;;;5.20;;
43150;SDS011;28755;51.478;5.702;2023-06-10T14:50:59;8.40;;;4.97;;
43150;SDS011;28755;51.478;5.702;2023-06-10T14:53:25;6.68;;;5.13;;
43150;SDS011;28755;51.478;5.702;2023-06-10T14:55:50;11.45;;;5.82;;